sensor_id;sensor_type;location;lat;lon;timestamp;temperature;humidity
20526;DHT22;10421;49.142;9.232;2023-02-02T00:00:55;8.40;98.80
20526;DHT22;10421;49.142;9.232;2023-02-02T00:03:23;8.40;98.90
20526;DHT22;10421;49.142;9.232;2023-02-02T00:05:52;8.40;98.80
20526;DHT22;10421;49.142;9.232;2023-02-02T00:08:20;8.40;98.80
20526;DHT22;10421;49.142;9.232;2023-02-02T00:10:47;8.40;98.90
20526;DHT22;10421;49.142;9.232;2023-02-02T00:13:15;8.40;98.90
20526;DHT22;10421;49.142;9.232;2023-02-02T00:15:42;8.50;98.90
20526;DHT22;10421;49.142;9.232;2023-02-02T00:18:09;8.40;98.80
20526;DHT22;10421;49.142;9.232;2023-02-02T00:20:37;8.50;99.00
20526;DHT22;10421;49.142;9.232;2023-02-02T00:23:04;8.50;98.90
20526;DHT22;10421;49.142;9.232;2023-02-02T00:25:31;8.50;98.90
20526;DHT22;10421;49.142;9.232;2023-02-02T00:27:57;8.50;99.00
20526;DHT22;10421;49.142;9.232;2023-02-02T00:30:24;8.50;99.00
20526;DHT22;10421;49.142;9.232;2023-02-02T00:32:51;8.50;99.00
20526;DHT22;10421;49.142;9.232;2023-02-02T00:35:19;8.40;99.00
20526;DHT22;10421;49.142;9.232;2023-02-02T00:37:47;8.50;99.10
20526;DHT22;10421;49.142;9.232;2023-02-02T00:40:15;8.30;99.00
20526;DHT22;10421;49.142;9.232;2023-02-02T00:42:41;8.30;99.30
20526;DHT22;10421;49.142;9.232;2023-02-02T00:45:13;8.30;99.30
20526;DHT22;10421;49.142;9.232;2023-02-02T00:47:43;8.40;99.30
20526;DHT22;10421;49.142;9.232;2023-02-02T00:50:12;8.40;99.70
20526;DHT22;10421;49.142;9.232;2023-02-02T00:52:40;8.30;99.40
20526;DHT22;10421;49.142;9.232;2023-02-02T00:55:09;8.40;99.50
20526;DHT22;10421;49.142;9.232;2023-02-02T00:57:36;8.40;99.60
20526;DHT22;10421;49.142;9.232;2023-02-02T01:00:05;8.30;99.60
20526;DHT22;10421;49.142;9.232;2023-02-02T01:02:33;8.20;99.80
20526;DHT22;10421;49.142;9.232;2023-02-02T01:05:03;8.20;99.90
20526;DHT22;10421;49.142;9.232;2023-02-02T01:07:30;8.20;99.90
20526;DHT22;10421;49.142;9.232;2023-02-02T01:09:57;8.20;99.90
20526;DHT22;10421;49.142;9.232;2023-02-02T01:12:25;8.20;99.90
20526;DHT22;10421;49.142;9.232;2023-02-02T01:14:52;8.30;99.90
20526;DHT22;10421;49.142;9.232;2023-02-02T01:17:18;8.30;99.90
20526;DHT22;10421;49.142;9.232;2023-02-02T01:19:45;8.20;99.90
20526;DHT22;10421;49.142;9.232;2023-02-02T01:22:12;8.20;99.90
20526;DHT22;10421;49.142;9.232;2023-02-02T01:24:39;8.20;99.90
20526;DHT22;10421;49.142;9.232;2023-02-02T01:27:07;8.20;99.90
20526;DHT22;10421;49.142;9.232;2023-02-02T01:29:35;8.10;99.90
20526;DHT22;10421;49.142;9.232;2023-02-02T01:32:03;8.20;99.90
20526;DHT22;10421;49.142;9.232;2023-02-02T01:34:30;8.20;99.90
20526;DHT22;10421;49.142;9.232;2023-02-02T01:36:57;8.00;99.90
20526;DHT22;10421;49.142;9.232;2023-02-02T01:39:24;8.00;99.90
20526;DHT22;10421;49.142;9.232;2023-02-02T01:41:51;8.00;99.90
20526;DHT22;10421;49.142;9.232;2023-02-02T01:45:01;8.00;99.90
20526;DHT22;10421;49.142;9.232;2023-02-02T01:47:32;8.00;99.90
20526;DHT22;10421;49.142;9.232;2023-02-02T01:50:00;8.10;99.90
20526;DHT22;10421;49.142;9.232;2023-02-02T01:52:28;8.00;99.90
20526;DHT22;10421;49.142;9.232;2023-02-02T01:55:00;8.00;99.90
20526;DHT22;10421;49.142;9.232;2023-02-02T01:57:30;8.00;99.90
20526;DHT22;10421;49.142;9.232;2023-02-02T02:00:03;8.00;99.90
20526;DHT22;10421;49.142;9.232;2023-02-02T02:02:31;8.00;99.90
20526;DHT22;10421;49.142;9.232;2023-02-02T02:04:59;8.10;99.90
20526;DHT22;10421;49.142;9.232;2023-02-02T02:07:27;8.10;99.90
20526;DHT22;10421;49.142;9.232;2023-02-02T02:09:53;8.10;99.90
20526;DHT22;10421;49.142;9.232;2023-02-02T02:12:20;8.10;99.90
20526;DHT22;10421;49.142;9.232;2023-02-02T02:14:49;8.10;99.90
20526;DHT22;10421;49.142;9.232;2023-02-02T02:17:57;8.10;99.90
20526;DHT22;10421;49.142;9.232;2023-02-02T02:24:40;8.00;99.90
20526;DHT22;10421;49.142;9.232;2023-02-02T02:28:03;8.10;99.90
20526;DHT22;10421;49.142;9.232;2023-02-02T02:30:41;8.10;99.90
20526;DHT22;10421;49.142;9.232;2023-02-02T02:33:17;8.20;99.90
20526;DHT22;10421;49.142;9.232;2023-02-02T02:35:54;8.20;99.90
20526;DHT22;10421;49.142;9.232;2023-02-02T02:38:30;8.20;99.90
20526;DHT22;10421;49.142;9.232;2023-02-02T02:41:04;8.20;99.90
20526;DHT22;10421;49.142;9.232;2023-02-02T02:43:35;8.20;99.90
20526;DHT22;10421;49.142;9.232;2023-02-02T02:46:04;8.20;99.90
20526;DHT22;10421;49.142;9.232;2023-02-02T02:48:32;8.20;99.90
20526;DHT22;10421;49.142;9.232;2023-02-02T02:51:06;8.20;99.90
20526;DHT22;10421;49.142;9.232;2023-02-02T02:53:33;8.20;99.90
20526;DHT22;10421;49.142;9.232;2023-02-02T02:56:06;8.20;99.90
20526;DHT22;10421;49.142;9.232;2023-02-02T02:58:42;8.10;99.90
20526;DHT22;10421;49.142;9.232;2023-02-02T03:01:16;8.10;99.90
20526;DHT22;10421;49.142;9.232;2023-02-02T03:03:59;8.10;99.90
20526;DHT22;10421;49.142;9.232;2023-02-02T03:06:35;8.20;99.90
20526;DHT22;10421;49.142;9.232;2023-02-02T03:09:06;8.20;99.90
20526;DHT22;10421;49.142;9.232;2023-02-02T03:11:34;8.20;99.90
20526;DHT22;10421;49.142;9.232;2023-02-02T03:14:02;8.20;99.90
20526;DHT22;10421;49.142;9.232;2023-02-02T03:16:29;8.30;99.90
20526;DHT22;10421;49.142;9.232;2023-02-02T03:18:57;8.30;99.90
20526;DHT22;10421;49.142;9.232;2023-02-02T03:21:24;8.30;99.90
20526;DHT22;10421;49.142;9.232;2023-02-02T03:23:50;8.30;99.90
20526;DHT22;10421;49.142;9.232;2023-02-02T03:26:17;8.40;99.90
20526;DHT22;10421;49.142;9.232;2023-02-02T03:28:44;8.40;99.90
20526;DHT22;10421;49.142;9.232;2023-02-02T03:31:11;8.30;99.90
20526;DHT22;10421;49.142;9.232;2023-02-02T03:33:38;8.30;99.90
20526;DHT22;10421;49.142;9.232;2023-02-02T03:36:07;8.40;99.90
20526;DHT22;10421;49.142;9.232;2023-02-02T03:38:34;8.40;99.90
20526;DHT22;10421;49.142;9.232;2023-02-02T03:41:01;8.40;99.90
20526;DHT22;10421;49.142;9.232;2023-02-02T03:43:27;8.30;99.90
20526;DHT22;10421;49.142;9.232;2023-02-02T03:45:55;8.30;99.90
20526;DHT22;10421;49.142;9.232;2023-02-02T03:48:22;8.30;99.90
20526;DHT22;10421;49.142;9.232;2023-02-02T03:50:49;8.20;99.90
20526;DHT22;10421;49.142;9.232;2023-02-02T03:53:17;8.30;99.90
20526;DHT22;10421;49.142;9.232;2023-02-02T03:55:44;8.30;99.90
20526;DHT22;10421;49.142;9.232;2023-02-02T03:58:11;8.20;99.90
20526;DHT22;10421;49.142;9.232;2023-02-02T04:00:37;8.30;99.90
20526;DHT22;10421;49.142;9.232;2023-02-02T04:03:04;8.30;99.90
20526;DHT22;10421;49.142;9.232;2023-02-02T04:05:31;8.30;99.90
20526;DHT22;10421;49.142;9.232;2023-02-02T04:07:58;8.40;99.90
20526;DHT22;10421;49.142;9.232;2023-02-02T04:10:26;8.40;99.90
20526;DHT22;10421;49.142;9.232;2023-02-02T04:12:53;8.30;99.90
20526;DHT22;10421;49.142;9.232;2023-02-02T04:15:19;8.30;99.90
20526;DHT22;10421;49.142;9.232;2023-02-02T04:17:46;8.30;99.90
20526;DHT22;10421;49.142;9.232;2023-02-02T04:20:13;8.30;99.90
20526;DHT22;10421;49.142;9.232;2023-02-02T04:22:40;8.30;99.90
20526;DHT22;10421;49.142;9.232;2023-02-02T04:25:07;8.30;99.90
20526;DHT22;10421;49.142;9.232;2023-02-02T04:27:35;8.30;99.90
20526;DHT22;10421;49.142;9.232;2023-02-02T04:30:02;8.30;99.90
20526;DHT22;10421;49.142;9.232;2023-02-02T04:32:30;8.20;99.90
20526;DHT22;10421;49.142;9.232;2023-02-02T04:34:56;8.30;99.90
20526;DHT22;10421;49.142;9.232;2023-02-02T04:37:23;8.20;99.90
20526;DHT22;10421;49.142;9.232;2023-02-02T04:39:50;8.10;99.90
20526;DHT22;10421;49.142;9.232;2023-02-02T04:42:18;8.10;99.90
20526;DHT22;10421;49.142;9.232;2023-02-02T04:44:46;8.20;99.90
20526;DHT22;10421;49.142;9.232;2023-02-02T04:47:12;8.10;99.90
20526;DHT22;10421;49.142;9.232;2023-02-02T04:49:39;8.10;99.90
20526;DHT22;10421;49.142;9.232;2023-02-02T04:52:06;8.10;99.90
20526;DHT22;10421;49.142;9.232;2023-02-02T04:54:33;8.20;99.90
20526;DHT22;10421;49.142;9.232;2023-02-02T04:57:00;8.30;99.90
20526;DHT22;10421;49.142;9.232;2023-02-02T04:59:27;8.30;99.90
20526;DHT22;10421;49.142;9.232;2023-02-02T05:01:57;8.30;99.90
20526;DHT22;10421;49.142;9.232;2023-02-02T05:04:24;8.40;99.90
20526;DHT22;10421;49.142;9.232;2023-02-02T05:06:51;8.40;99.90
20526;DHT22;10421;49.142;9.232;2023-02-02T05:09:18;8.40;99.90
20526;DHT22;10421;49.142;9.232;2023-02-02T05:11:45;8.40;99.90
20526;DHT22;10421;49.142;9.232;2023-02-02T05:14:11;8.40;99.90
20526;DHT22;10421;49.142;9.232;2023-02-02T05:16:40;8.40;99.90
20526;DHT22;10421;49.142;9.232;2023-02-02T05:19:10;8.40;99.90
20526;DHT22;10421;49.142;9.232;2023-02-02T05:21:37;8.40;99.90
20526;DHT22;10421;49.142;9.232;2023-02-02T05:24:04;8.40;99.90
20526;DHT22;10421;49.142;9.232;2023-02-02T05:26:30;8.40;99.90
20526;DHT22;10421;49.142;9.232;2023-02-02T05:28:57;8.30;99.90
20526;DHT22;10421;49.142;9.232;2023-02-02T05:31:24;8.30;99.90
20526;DHT22;10421;49.142;9.232;2023-02-02T05:33:50;8.30;99.90
20526;DHT22;10421;49.142;9.232;2023-02-02T05:36:19;8.30;99.90
20526;DHT22;10421;49.142;9.232;2023-02-02T05:38:45;8.40;99.90
20526;DHT22;10421;49.142;9.232;2023-02-02T05:41:12;8.30;99.90
20526;DHT22;10421;49.142;9.232;2023-02-02T05:43:39;8.30;99.90
20526;DHT22;10421;49.142;9.232;2023-02-02T05:46:05;8.20;99.90
20526;DHT22;10421;49.142;9.232;2023-02-02T05:48:32;8.30;99.90
20526;DHT22;10421;49.142;9.232;2023-02-02T05:51:01;8.20;99.90
20526;DHT22;10421;49.142;9.232;2023-02-02T05:53:31;8.30;99.90
20526;DHT22;10421;49.142;9.232;2023-02-02T05:55:58;8.30;99.90
20526;DHT22;10421;49.142;9.232;2023-02-02T05:58:25;8.30;99.90
20526;DHT22;10421;49.142;9.232;2023-02-02T06:00:52;8.30;99.90
20526;DHT22;10421;49.142;9.232;2023-02-02T06:03:19;8.30;99.90
20526;DHT22;10421;49.142;9.232;2023-02-02T06:05:49;8.20;99.90
20526;DHT22;10421;49.142;9.232;2023-02-02T06:08:16;8.20;99.90
20526;DHT22;10421;49.142;9.232;2023-02-02T06:10:44;8.20;99.90
20526;DHT22;10421;49.142;9.232;2023-02-02T06:13:10;8.30;99.90
20526;DHT22;10421;49.142;9.232;2023-02-02T06:15:37;8.40;99.90
20526;DHT22;10421;49.142;9.232;2023-02-02T06:18:04;8.30;99.90
20526;DHT22;10421;49.142;9.232;2023-02-02T06:20:33;8.30;99.90
20526;DHT22;10421;49.142;9.232;2023-02-02T06:23:00;8.30;99.90
20526;DHT22;10421;49.142;9.232;2023-02-02T06:25:26;8.30;99.90
20526;DHT22;10421;49.142;9.232;2023-02-02T06:27:56;8.30;99.90
20526;DHT22;10421;49.142;9.232;2023-02-02T06:30:23;8.30;99.90
20526;DHT22;10421;49.142;9.232;2023-02-02T06:32:50;8.30;99.90
20526;DHT22;10421;49.142;9.232;2023-02-02T06:35:17;8.30;99.90
20526;DHT22;10421;49.142;9.232;2023-02-02T06:37:44;8.30;99.90
20526;DHT22;10421;49.142;9.232;2023-02-02T06:40:11;8.40;99.90
20526;DHT22;10421;49.142;9.232;2023-02-02T06:42:38;8.40;99.90
20526;DHT22;10421;49.142;9.232;2023-02-02T06:45:07;8.40;99.90
20526;DHT22;10421;49.142;9.232;2023-02-02T06:47:34;8.40;99.90
20526;DHT22;10421;49.142;9.232;2023-02-02T06:50:01;8.40;99.90
20526;DHT22;10421;49.142;9.232;2023-02-02T06:52:28;8.40;99.90
20526;DHT22;10421;49.142;9.232;2023-02-02T06:54:54;8.40;99.90
20526;DHT22;10421;49.142;9.232;2023-02-02T06:57:21;8.40;99.90
20526;DHT22;10421;49.142;9.232;2023-02-02T06:59:48;8.30;99.90
20526;DHT22;10421;49.142;9.232;2023-02-02T07:02:16;8.40;99.90
20526;DHT22;10421;49.142;9.232;2023-02-02T07:04:43;8.40;99.90
20526;DHT22;10421;49.142;9.232;2023-02-02T07:07:10;8.40;99.90
20526;DHT22;10421;49.142;9.232;2023-02-02T07:09:37;8.40;99.90
20526;DHT22;10421;49.142;9.232;2023-02-02T07:12:04;8.50;99.90
20526;DHT22;10421;49.142;9.232;2023-02-02T07:14:30;8.40;99.90
20526;DHT22;10421;49.142;9.232;2023-02-02T07:16:57;8.40;99.90
20526;DHT22;10421;49.142;9.232;2023-02-02T07:19:25;8.50;99.90
20526;DHT22;10421;49.142;9.232;2023-02-02T07:21:52;8.40;99.90
20526;DHT22;10421;49.142;9.232;2023-02-02T07:24:19;8.40;99.90
20526;DHT22;10421;49.142;9.232;2023-02-02T07:26:46;8.50;99.90
20526;DHT22;10421;49.142;9.232;2023-02-02T07:29:13;8.50;99.90
20526;DHT22;10421;49.142;9.232;2023-02-02T07:31:40;8.50;99.90
20526;DHT22;10421;49.142;9.232;2023-02-02T07:34:08;8.50;99.90
20526;DHT22;10421;49.142;9.232;2023-02-02T07:36:36;8.50;99.90
20526;DHT22;10421;49.142;9.232;2023-02-02T07:39:03;8.50;99.90
20526;DHT22;10421;49.142;9.232;2023-02-02T07:41:33;8.60;99.90
20526;DHT22;10421;49.142;9.232;2023-02-02T07:44:00;8.70;99.90
20526;DHT22;10421;49.142;9.232;2023-02-02T07:46:27;8.70;99.90
20526;DHT22;10421;49.142;9.232;2023-02-02T07:48:55;8.70;99.90
20526;DHT22;10421;49.142;9.232;2023-02-02T07:51:23;8.70;99.90
20526;DHT22;10421;49.142;9.232;2023-02-02T07:53:53;8.70;99.90
20526;DHT22;10421;49.142;9.232;2023-02-02T07:56:21;8.70;99.90
20526;DHT22;10421;49.142;9.232;2023-02-02T07:58:50;8.70;99.90
20526;DHT22;10421;49.142;9.232;2023-02-02T08:01:17;8.60;99.90
20526;DHT22;10421;49.142;9.232;2023-02-02T08:03:47;8.60;99.90
20526;DHT22;10421;49.142;9.232;2023-02-02T08:06:16;8.60;99.90
20526;DHT22;10421;49.142;9.232;2023-02-02T08:08:44;8.60;99.90
20526;DHT22;10421;49.142;9.232;2023-02-02T08:11:14;8.50;99.90
20526;DHT22;10421;49.142;9.232;2023-02-02T08:13:42;8.60;99.90
20526;DHT22;10421;49.142;9.232;2023-02-02T08:16:10;8.50;99.90
20526;DHT22;10421;49.142;9.232;2023-02-02T08:18:37;8.50;99.90
20526;DHT22;10421;49.142;9.232;2023-02-02T08:21:06;8.50;99.90
20526;DHT22;10421;49.142;9.232;2023-02-02T08:23:34;8.60;99.90
20526;DHT22;10421;49.142;9.232;2023-02-02T08:26:06;8.60;99.90
20526;DHT22;10421;49.142;9.232;2023-02-02T08:28:34;8.60;99.90
20526;DHT22;10421;49.142;9.232;2023-02-02T08:31:06;8.60;99.90
20526;DHT22;10421;49.142;9.232;2023-02-02T08:33:33;8.60;99.90
20526;DHT22;10421;49.142;9.232;2023-02-02T08:36:00;8.60;99.90
20526;DHT22;10421;49.142;9.232;2023-02-02T08:38:27;8.60;99.90
20526;DHT22;10421;49.142;9.232;2023-02-02T08:40:54;8.60;99.90
20526;DHT22;10421;49.142;9.232;2023-02-02T08:43:21;8.60;99.90
20526;DHT22;10421;49.142;9.232;2023-02-02T08:45:50;8.50;99.90
20526;DHT22;10421;49.142;9.232;2023-02-02T08:48:17;8.50;99.90
20526;DHT22;10421;49.142;9.232;2023-02-02T08:50:51;8.60;99.90
20526;DHT22;10421;49.142;9.232;2023-02-02T08:53:18;8.60;99.90
20526;DHT22;10421;49.142;9.232;2023-02-02T08:55:45;8.60;99.90
20526;DHT22;10421;49.142;9.232;2023-02-02T08:58:11;8.60;99.90
20526;DHT22;10421;49.142;9.232;2023-02-02T09:00:38;8.60;99.90
20526;DHT22;10421;49.142;9.232;2023-02-02T09:03:07;8.60;99.90
20526;DHT22;10421;49.142;9.232;2023-02-02T09:05:34;8.60;99.90
20526;DHT22;10421;49.142;9.232;2023-02-02T09:08:03;8.70;99.90
20526;DHT22;10421;49.142;9.232;2023-02-02T09:10:30;8.80;99.90
20526;DHT22;10421;49.142;9.232;2023-02-02T09:12:56;8.80;99.90
20526;DHT22;10421;49.142;9.232;2023-02-02T09:15:23;8.80;99.90
20526;DHT22;10421;49.142;9.232;2023-02-02T09:17:51;8.80;99.90
20526;DHT22;10421;49.142;9.232;2023-02-02T09:20:19;8.80;99.90
20526;DHT22;10421;49.142;9.232;2023-02-02T09:22:46;8.80;99.90
20526;DHT22;10421;49.142;9.232;2023-02-02T09:25:13;8.90;99.90
20526;DHT22;10421;49.142;9.232;2023-02-02T09:27:40;8.80;99.90
20526;DHT22;10421;49.142;9.232;2023-02-02T09:30:08;8.90;99.90
20526;DHT22;10421;49.142;9.232;2023-02-02T09:32:35;8.80;99.90
20526;DHT22;10421;49.142;9.232;2023-02-02T09:35:02;8.80;99.90
20526;DHT22;10421;49.142;9.232;2023-02-02T09:37:32;8.80;99.90
20526;DHT22;10421;49.142;9.232;2023-02-02T09:40:00;8.90;99.90
20526;DHT22;10421;49.142;9.232;2023-02-02T09:42:45;8.90;99.90
20526;DHT22;10421;49.142;9.232;2023-02-02T09:45:18;8.90;99.90
20526;DHT22;10421;49.142;9.232;2023-02-02T09:47:54;9.00;99.90
20526;DHT22;10421;49.142;9.232;2023-02-02T09:50:38;9.00;99.90
20526;DHT22;10421;49.142;9.232;2023-02-02T09:53:13;9.00;99.90
20526;DHT22;10421;49.142;9.232;2023-02-02T09:55:43;8.90;99.90
20526;DHT22;10421;49.142;9.232;2023-02-02T09:58:15;9.00;99.90
20526;DHT22;10421;49.142;9.232;2023-02-02T10:00:47;9.00;99.90
20526;DHT22;10421;49.142;9.232;2023-02-02T10:03:20;8.90;99.90
20526;DHT22;10421;49.142;9.232;2023-02-02T10:05:53;8.90;99.90
20526;DHT22;10421;49.142;9.232;2023-02-02T10:08:27;9.00;99.90
20526;DHT22;10421;49.142;9.232;2023-02-02T10:10:59;9.00;99.90
20526;DHT22;10421;49.142;9.232;2023-02-02T10:13:30;9.10;99.90
20526;DHT22;10421;49.142;9.232;2023-02-02T10:16:02;9.10;99.90
20526;DHT22;10421;49.142;9.232;2023-02-02T10:18:38;9.10;99.90
20526;DHT22;10421;49.142;9.232;2023-02-02T10:21:10;9.10;99.90
20526;DHT22;10421;49.142;9.232;2023-02-02T10:23:41;9.20;99.90
20526;DHT22;10421;49.142;9.232;2023-02-02T10:26:15;9.20;99.90
20526;DHT22;10421;49.142;9.232;2023-02-02T10:28:52;9.10;99.90
20526;DHT22;10421;49.142;9.232;2023-02-02T10:31:34;9.10;99.90
20526;DHT22;10421;49.142;9.232;2023-02-02T10:34:10;9.20;99.90
20526;DHT22;10421;49.142;9.232;2023-02-02T10:36:48;9.30;99.90
20526;DHT22;10421;49.142;9.232;2023-02-02T10:39:24;9.30;99.90
20526;DHT22;10421;49.142;9.232;2023-02-02T10:42:01;9.20;99.90
20526;DHT22;10421;49.142;9.232;2023-02-02T10:44:34;9.20;99.90
20526;DHT22;10421;49.142;9.232;2023-02-02T10:47:04;9.10;99.90
20526;DHT22;10421;49.142;9.232;2023-02-02T10:49:33;9.20;99.90
20526;DHT22;10421;49.142;9.232;2023-02-02T10:52:12;9.20;99.90
20526;DHT22;10421;49.142;9.232;2023-02-02T10:54:56;9.20;99.90
20526;DHT22;10421;49.142;9.232;2023-02-02T10:57:34;9.20;99.90
20526;DHT22;10421;49.142;9.232;2023-02-02T11:00:09;9.20;99.90
20526;DHT22;10421;49.142;9.232;2023-02-02T11:02:39;9.20;99.90
20526;DHT22;10421;49.142;9.232;2023-02-02T11:05:12;9.30;99.90
20526;DHT22;10421;49.142;9.232;2023-02-02T11:07:57;9.30;99.90
20526;DHT22;10421;49.142;9.232;2023-02-02T11:10:25;9.20;99.90
20526;DHT22;10421;49.142;9.232;2023-02-02T11:12:53;9.20;99.90
20526;DHT22;10421;49.142;9.232;2023-02-02T11:15:24;9.30;99.90
20526;DHT22;10421;49.142;9.232;2023-02-02T11:17:52;9.30;99.90
20526;DHT22;10421;49.142;9.232;2023-02-02T11:20:24;9.40;99.90
20526;DHT22;10421;49.142;9.232;2023-02-02T11:23:00;9.30;99.90
20526;DHT22;10421;49.142;9.232;2023-02-02T11:25:30;9.30;99.90
20526;DHT22;10421;49.142;9.232;2023-02-02T11:28:00;9.30;99.90
20526;DHT22;10421;49.142;9.232;2023-02-02T11:30:30;9.30;99.90
20526;DHT22;10421;49.142;9.232;2023-02-02T11:32:58;9.40;99.90
20526;DHT22;10421;49.142;9.232;2023-02-02T11:35:26;9.30;99.90
20526;DHT22;10421;49.142;9.232;2023-02-02T11:38:04;9.20;99.90
20526;DHT22;10421;49.142;9.232;2023-02-02T11:40:37;9.20;99.90
20526;DHT22;10421;49.142;9.232;2023-02-02T11:43:14;9.20;99.90
20526;DHT22;10421;49.142;9.232;2023-02-02T11:45:44;9.20;99.90
20526;DHT22;10421;49.142;9.232;2023-02-02T11:48:16;9.20;99.90
20526;DHT22;10421;49.142;9.232;2023-02-02T11:50:45;9.20;99.90
20526;DHT22;10421;49.142;9.232;2023-02-02T11:53:21;9.20;99.90
20526;DHT22;10421;49.142;9.232;2023-02-02T11:55:50;9.10;99.90
20526;DHT22;10421;49.142;9.232;2023-02-02T11:58:19;9.10;99.90
20526;DHT22;10421;49.142;9.232;2023-02-02T12:00:51;9.10;99.90
20526;DHT22;10421;49.142;9.232;2023-02-02T12:03:24;9.10;99.90
20526;DHT22;10421;49.142;9.232;2023-02-02T12:05:52;9.10;99.90
20526;DHT22;10421;49.142;9.232;2023-02-02T12:08:19;9.10;99.90
20526;DHT22;10421;49.142;9.232;2023-02-02T12:10:52;9.10;99.90
20526;DHT22;10421;49.142;9.232;2023-02-02T12:13:29;9.10;99.90
20526;DHT22;10421;49.142;9.232;2023-02-02T12:16:04;9.20;99.90
20526;DHT22;10421;49.142;9.232;2023-02-02T12:18:40;9.20;99.90
20526;DHT22;10421;49.142;9.232;2023-02-02T12:21:16;9.20;99.90
20526;DHT22;10421;49.142;9.232;2023-02-02T12:23:52;9.10;99.90
20526;DHT22;10421;49.142;9.232;2023-02-02T12:26:25;9.10;99.90
20526;DHT22;10421;49.142;9.232;2023-02-02T12:29:13;9.00;99.90
20526;DHT22;10421;49.142;9.232;2023-02-02T12:31:52;9.00;99.90
20526;DHT22;10421;49.142;9.232;2023-02-02T12:34:31;9.00;99.90
20526;DHT22;10421;49.142;9.232;2023-02-02T12:37:10;9.00;99.90
20526;DHT22;10421;49.142;9.232;2023-02-02T12:39:49;9.00;99.90
20526;DHT22;10421;49.142;9.232;2023-02-02T12:42:33;9.00;99.90
20526;DHT22;10421;49.142;9.232;2023-02-02T12:45:22;9.00;99.90
20526;DHT22;10421;49.142;9.232;2023-02-02T12:47:59;9.00;99.90
20526;DHT22;10421;49.142;9.232;2023-02-02T12:50:32;9.00;99.90
20526;DHT22;10421;49.142;9.232;2023-02-02T12:53:19;8.90;99.90
20526;DHT22;10421;49.142;9.232;2023-02-02T12:55:56;9.00;99.90
20526;DHT22;10421;49.142;9.232;2023-02-02T12:58:33;9.00;99.90
20526;DHT22;10421;49.142;9.232;2023-02-02T13:01:18;8.90;99.90
20526;DHT22;10421;49.142;9.232;2023-02-02T13:04:07;9.00;99.90
20526;DHT22;10421;49.142;9.232;2023-02-02T13:07:02;9.00;99.90
20526;DHT22;10421;49.142;9.232;2023-02-02T13:09:33;9.00;99.90
20526;DHT22;10421;49.142;9.232;2023-02-02T13:12:06;8.90;99.90
20526;DHT22;10421;49.142;9.232;2023-02-02T13:14:39;8.90;99.90
20526;DHT22;10421;49.142;9.232;2023-02-02T13:17:11;8.90;99.90
20526;DHT22;10421;49.142;9.232;2023-02-02T13:19:43;9.00;99.90
20526;DHT22;10421;49.142;9.232;2023-02-02T13:22:16;9.10;99.90
20526;DHT22;10421;49.142;9.232;2023-02-02T13:24:47;9.10;99.90
20526;DHT22;10421;49.142;9.232;2023-02-02T13:27:17;9.10;99.90
20526;DHT22;10421;49.142;9.232;2023-02-02T13:29:50;9.10;99.90
20526;DHT22;10421;49.142;9.232;2023-02-02T13:32:23;9.10;99.90
20526;DHT22;10421;49.142;9.232;2023-02-02T13:34:55;9.20;99.90
20526;DHT22;10421;49.142;9.232;2023-02-02T13:37:27;9.30;99.90
20526;DHT22;10421;49.142;9.232;2023-02-02T13:40:04;9.30;99.90
20526;DHT22;10421;49.142;9.232;2023-02-02T13:42:37;9.40;99.90
20526;DHT22;10421;49.142;9.232;2023-02-02T13:45:33;9.40;99.90
20526;DHT22;10421;49.142;9.232;2023-02-02T13:48:10;9.40;99.90
20526;DHT22;10421;49.142;9.232;2023-02-02T13:50:46;9.40;99.90
20526;DHT22;10421;49.142;9.232;2023-02-02T13:53:32;9.50;99.90
20526;DHT22;10421;49.142;9.232;2023-02-02T13:56:13;9.50;99.90
20526;DHT22;10421;49.142;9.232;2023-02-02T13:59:16;9.70;99.90
20526;DHT22;10421;49.142;9.232;2023-02-02T14:01:52;9.70;99.90
20526;DHT22;10421;49.142;9.232;2023-02-02T14:04:21;9.80;99.90
20526;DHT22;10421;49.142;9.232;2023-02-02T14:06:55;9.90;99.90
20526;DHT22;10421;49.142;9.232;2023-02-02T14:09:25;9.90;99.90
20526;DHT22;10421;49.142;9.232;2023-02-02T14:11:56;9.80;99.90
20526;DHT22;10421;49.142;9.232;2023-02-02T14:14:24;9.80;99.90
20526;DHT22;10421;49.142;9.232;2023-02-02T14:16:59;9.80;99.90
20526;DHT22;10421;49.142;9.232;2023-02-02T14:19:46;9.80;99.90
20526;DHT22;10421;49.142;9.232;2023-02-02T14:24:59;9.70;99.90
20526;DHT22;10421;49.142;9.232;2023-02-02T14:28:00;9.80;99.90
20526;DHT22;10421;49.142;9.232;2023-02-02T14:30:33;9.70;99.90
20526;DHT22;10421;49.142;9.232;2023-02-02T14:33:27;9.70;99.90
20526;DHT22;10421;49.142;9.232;2023-02-02T14:36:04;9.60;99.90
20526;DHT22;10421;49.142;9.232;2023-02-02T14:38:52;9.60;99.90
20526;DHT22;10421;49.142;9.232;2023-02-02T14:41:29;9.60;99.90
20526;DHT22;10421;49.142;9.232;2023-02-02T14:44:15;9.60;99.90
20526;DHT22;10421;49.142;9.232;2023-02-02T14:46:42;9.70;99.90
20526;DHT22;10421;49.142;9.232;2023-02-02T14:49:20;9.80;99.90
20526;DHT22;10421;49.142;9.232;2023-02-02T14:51:52;9.80;99.90
20526;DHT22;10421;49.142;9.232;2023-02-02T14:54:22;9.80;99.90
20526;DHT22;10421;49.142;9.232;2023-02-02T14:56:53;9.80;99.90
20526;DHT22;10421;49.142;9.232;2023-02-02T14:59:23;9.70;99.90
20526;DHT22;10421;49.142;9.232;2023-02-02T15:01:58;9.80;99.90
20526;DHT22;10421;49.142;9.232;2023-02-02T15:04:28;9.80;99.90
20526;DHT22;10421;49.142;9.232;2023-02-02T15:06:55;9.80;99.90
20526;DHT22;10421;49.142;9.232;2023-02-02T15:09:44;9.80;99.90
20526;DHT22;10421;49.142;9.232;2023-02-02T15:12:26;9.80;99.90
20526;DHT22;10421;49.142;9.232;2023-02-02T15:15:01;9.80;99.80
20526;DHT22;10421;49.142;9.232;2023-02-02T15:17:37;9.90;99.80
20526;DHT22;10421;49.142;9.232;2023-02-02T15:20:13;9.80;99.70
20526;DHT22;10421;49.142;9.232;2023-02-02T15:22:49;9.80;99.70
20526;DHT22;10421;49.142;9.232;2023-02-02T15:25:23;9.80;99.50
20526;DHT22;10421;49.142;9.232;2023-02-02T15:27:54;9.80;99.40
20526;DHT22;10421;49.142;9.232;2023-02-02T15:30:23;9.70;99.50
20526;DHT22;10421;49.142;9.232;2023-02-02T15:32:52;9.60;99.70
20526;DHT22;10421;49.142;9.232;2023-02-02T15:35:25;9.70;99.40
20526;DHT22;10421;49.142;9.232;2023-02-02T15:37:58;9.80;99.40
20526;DHT22;10421;49.142;9.232;2023-02-02T15:40:29;9.70;99.20
20526;DHT22;10421;49.142;9.232;2023-02-02T15:42:59;9.70;99.10
20526;DHT22;10421;49.142;9.232;2023-02-02T15:45:38;9.70;99.10
20526;DHT22;10421;49.142;9.232;2023-02-02T15:48:23;9.70;99.00
20526;DHT22;10421;49.142;9.232;2023-02-02T15:50:53;9.70;99.10
20526;DHT22;10421;49.142;9.232;2023-02-02T15:53:25;9.70;99.00
20526;DHT22;10421;49.142;9.232;2023-02-02T15:55:54;9.80;99.00
20526;DHT22;10421;49.142;9.232;2023-02-02T15:58:24;9.80;98.90
20526;DHT22;10421;49.142;9.232;2023-02-02T16:00:57;9.80;98.70
20526;DHT22;10421;49.142;9.232;2023-02-02T16:03:26;9.80;98.80
20526;DHT22;10421;49.142;9.232;2023-02-02T16:05:55;9.80;98.70
20526;DHT22;10421;49.142;9.232;2023-02-02T16:08:25;9.80;98.70
20526;DHT22;10421;49.142;9.232;2023-02-02T16:11:03;9.80;98.80
20526;DHT22;10421;49.142;9.232;2023-02-02T16:13:30;9.90;98.70
20526;DHT22;10421;49.142;9.232;2023-02-02T16:15:59;9.90;98.60